Time;durP1;ratioP1;P1;durP2;ratioP2;P2;SDS_P1;SDS_P2;PMS_P1;PMS_P2;Temp;Humidity;BMP_temperature;BMP_pressure;BME280_temperature;BME280_humidity;BME280_pressure;Samples;Min_cycle;Max_cycle;Signal;HPM_P1;HPM_P2
2021/10/25 12:04:05;;;;;;;15.18;6.65;;;;;;;9.29;76.95;100004.02;1258633;110;21426;-67
2021/10/25 12:06:32;;;;;;;13.05;6.83;;;;;;;9.31;76.86;100005.66;1255101;113;21755;-67
2021/10/25 12:09:08;;;;;;;13.03;6.78;;;;;;;9.34;76.66;100007.31;1263188;111;22464;-67
2021/10/25 12:11:49;;;;;;;11.97;6.55;;;;;;;9.36;76.60;100004.20;1270847;111;21265;-67
2021/10/25 12:14:09;;;;;;;12.55;6.87;;;;;;;9.37;76.48;100010.64;1270160;110;21297;-67
2021/10/25 12:16:39;;;;;;;17.27;7.45;;;;;;;9.40;76.33;100012.28;1344868;101;21153;-67
2021/10/25 12:19:06;;;;;;;11.95;6.45;;;;;;;9.42;76.38;100005.27;1395137;100;21732;-67
2021/10/25 12:21:35;;;;;;;10.85;6.50;;;;;;;9.47;76.29;100005.95;1393809;100;21871;-67
2021/10/25 12:24:08;;;;;;;13.78;6.62;;;;;;;9.50;76.17;100002.38;1393225;100;21233;-67
2021/10/25 12:26:35;;;;;;;12.80;6.42;;;;;;;9.49;76.25;100000.20;1450483;94;21213;-71
2021/10/25 12:29:18;;;;;;;14.07;6.62;;;;;;;9.48;76.04;99989.39;1512156;88;21215;-71
2021/10/25 12:31:47;;;;;;;17.07;7.22;;;;;;;9.46;76.09;99988.59;1595520;87;21208;-71
2021/10/25 12:34:14;;;;;;;12.60;6.90;;;;;;;9.49;76.09;99996.28;1619512;86;22434;-67
2021/10/25 12:36:45;;;;;;;10.25;6.12;;;;;;;9.49;75.93;100001.50;1596160;87;21131;-67
2021/10/25 12:39:17;;;;;;;8.30;5.90;;;;;;;9.49;75.99;99993.68;1578701;88;21155;-67
2021/10/25 12:41:54;;;;;;;13.40;6.12;;;;;;;9.51;75.87;100002.30;1689572;81;21103;-67
2021/10/25 12:44:44;;;;;;;17.70;6.75;;;;;;;9.53;75.94;100000.49;1700717;82;22364;-67
2021/10/25 12:47:14;;;;;;;11.63;5.72;;;;;;;9.55;75.72;99996.08;1719393;80;21356;-66
2021/10/25 12:49:48;;;;;;;12.65;6.25;;;;;;;9.58;75.53;100001.17;1738155;80;22149;-66
2021/10/25 12:52:16;;;;;;;14.50;6.30;;;;;;;9.61;75.51;99986.70;1724584;80;21712;-67
2021/10/25 12:54:43;;;;;;;18.00;6.37;;;;;;;9.62;75.25;99985.79;1721272;81;21232;-69
2021/10/25 12:57:22;;;;;;;12.82;5.30;;;;;;;9.58;75.12;99988.13;1723654;81;22323;-70
2021/10/25 13:00:06;;;;;;;8.25;5.58;;;;;;;9.54;74.63;100002.17;1733148;80;22496;-69
2021/10/25 13:02:31;;;;;;;19.92;6.62;;;;;;;9.49;74.78;99994.98;1731424;80;21863;-66
2021/10/25 13:05:13;;;;;;;11.73;6.62;;;;;;;9.43;74.77;99994.37;1729023;81;21078;-68
2021/10/25 13:07:53;;;;;;;12.58;6.30;;;;;;;9.41;74.76;99997.06;1719922;81;21105;-67
2021/10/25 13:10:24;;;;;;;12.28;5.85;;;;;;;9.38;74.78;99993.24;1727068;81;22202;-68
2021/10/25 13:12:52;;;;;;;12.35;6.40;;;;;;;9.37;74.51;99997.61;1713506;81;21154;-69
2021/10/25 13:15:22;;;;;;;23.05;6.55;;;;;;;9.34;74.62;99997.73;1719386;81;22367;-69
2021/10/25 13:17:49;;;;;;;15.38;6.42;;;;;;;9.35;74.69;100006.39;1707538;81;20958;-67
2021/10/25 13:20:18;;;;;;;11.67;6.70;;;;;;;9.37;74.70;100004.58;1710490;81;21114;-68
2021/10/25 13:22:45;;;;;;;15.35;6.03;;;;;;;9.41;74.42;99998.37;1732604;80;21062;-67
2021/10/25 13:26:10;;;;;;;14.78;7.47;;;;;;;9.41;74.13;99993.16;1851496;75;22884;-67
2021/10/25 13:28:38;;;;;;;9.35;6.00;;;;;;;9.38;74.37;99990.63;1827809;77;21025;-67
2021/10/25 13:31:04;;;;;;;11.60;6.08;;;;;;;9.43;74.45;99987.41;1826453;77;21531;-68
2021/10/25 13:33:34;;;;;;;15.18;6.40;;;;;;;9.50;74.42;99982.36;1829032;77;21024;-68
2021/10/25 13:35:59;;;;;;;13.58;6.55;;;;;;;9.54;74.04;99988.30;1829288;77;21013;-67
2021/10/25 13:38:26;;;;;;;12.78;6.67;;;;;;;9.56;73.92;99992.55;1833371;77;21024;-70
2021/10/25 13:40:52;;;;;;;14.05;5.97;;;;;;;9.54;73.76;99989.14;1826093;77;21024;-68
2021/10/25 13:43:19;;;;;;;14.90;6.37;;;;;;;9.55;73.76;99998.69;1828674;77;21149;-68
2021/10/25 13:45:47;;;;;;;16.07;5.87;;;;;;;9.52;73.72;99992.28;1825534;77;21065;-68
2021/10/25 13:48:14;;;;;;;;;;;;;;;9.47;73.63;99982.48;1832478;77;20969;-65
2021/10/25 13:50:42;;;;;;;22.05;6.47;;;;;;;9.40;73.25;99980.55;1823908;77;20351;-67
2021/10/25 13:53:09;;;;;;;10.82;6.22;;;;;;;9.32;73.53;99980.45;1827328;77;21080;-66
2021/10/25 13:55:37;;;;;;;14.18;6.35;;;;;;;9.22;73.53;99986.94;1821552;77;21070;-66
2021/10/25 13:58:04;;;;;;;9.03;6.17;;;;;;;9.17;73.64;99981.42;1831071;77;29545;-67
2021/10/25 14:01:51;;;;;;;10.30;6.42;;;;;;;9.16;73.48;99969.32;1851349;74;22608;-66
2021/10/25 14:04:20;;;;;;;17.48;7.08;;;;;;;9.03;73.49;99961.56;1816152;77;21054;-67
2021/10/25 14:06:46;;;;;;;12.98;6.80;;;;;;;8.96;73.54;99962.67;1816542;77;22660;-67
2021/10/25 14:09:13;;;;;;;11.05;6.80;;;;;;;8.90;73.57;99968.11;1814454;77;20979;-68
2021/10/25 14:11:52;;;;;;;12.30;6.90;;;;;;;8.83;73.50;99970.56;1815160;77;20901;-67
2021/10/25 14:14:18;;;;;;;13.40;8.48;;;;;;;8.73;73.39;99966.12;1808540;77;21691;-66
2021/10/25 14:16:49;;;;;;;16.25;8.63;;;;;;;8.62;73.25;99966.49;1813657;77;20995;-67
2021/10/25 14:19:08;;;;;;;16.70;9.45;;;;;;;8.52;73.32;99963.84;1811108;77;22412;-67
2021/10/25 14:21:37;;;;;;;16.35;9.25;;;;;;;8.40;73.37;99957.73;1818741;77;21260;-67
2021/10/25 14:24:08;;;;;;;13.93;7.95;;;;;;;8.32;73.40;99964.92;1795535;77;22244;-67
2021/10/25 14:26:36;;;;;;;13.50;7.58;;;;;;;8.22;73.38;99962.64;1814153;77;21011;-67
2021/10/25 14:29:05;;;;;;;10.88;6.58;;;;;;;8.15;73.27;99952.06;1815011;77;21078;-67
2021/10/25 14:31:33;;;;;;;16.52;7.10;;;;;;;8.04;73.31;99953.72;1813842;77;21109;-67
2021/10/25 14:34:00;;;;;;;16.42;8.33;;;;;;;7.96;73.31;99966.11;1813733;77;21797;-66
2021/10/25 14:36:27;;;;;;;14.60;7.00;;;;;;;7.84;73.22;99967.37;1815344;77;20894;-67
2021/10/25 14:41:06;;;;;;;12.45;7.12;;;;;;;7.71;73.08;99962.16;1863847;75;22751;-68
2021/10/25 14:43:36;;;;;;;16.45;9.15;;;;;;;7.56;73.15;99965.22;1820611;77;21186;-68
2021/10/25 14:46:10;;;;;;;14.47;8.03;;;;;;;7.48;73.23;99978.89;1823588;77;22289;-68
2021/10/25 14:48:42;;;;;;;15.90;7.87;;;;;;;7.39;73.25;99970.50;1825783;77;20986;-68
2021/10/25 14:53:58;;;;;;;18.48;9.30;;;;;;;7.22;73.27;99962.34;1828090;77;21350;-66
2021/10/25 14:59:07;;;;;;;23.47;10.53;;;;;;;7.10;73.36;99954.92;1837375;74;22641;-66
2021/10/25 15:01:35;;;;;;;16.35;7.78;;;;;;;6.99;73.35;99954.39;1843149;76;21054;-65
2021/10/25 15:04:06;;;;;;;;;;;;;;;6.90;73.43;99951.16;1840872;75;21067;-65
2021/10/25 15:06:34;;;;;;;16.62;9.80;;;;;;;6.84;73.43;99953.93;1818090;76;20160;-65
2021/10/25 15:09:00;;;;;;;28.77;9.88;;;;;;;6.75;73.47;99954.20;1823498;76;20885;-66
2021/10/25 15:11:27;;;;;;;13.70;8.98;;;;;;;6.67;73.49;99947.07;1831822;76;20987;-67
2021/10/25 15:13:54;;;;;;;15.13;8.00;;;;;;;6.57;73.45;99940.42;1765993;78;22417;-66
2021/10/25 15:16:21;;;;;;;13.35;8.23;;;;;;;6.46;73.47;99953.23;1769280;79;21144;-65
2021/10/25 15:18:47;;;;;;;17.50;10.03;;;;;;;6.34;73.56;99953.56;1756862;79;20977;-66
2021/10/25 15:21:16;;;;;;;18.00;10.00;;;;;;;6.28;73.69;99945.95;1766509;79;20977;-67
2021/10/25 15:23:42;;;;;;;17.85;10.68;;;;;;;6.21;73.73;99943.94;1747756;79;22310;-67
2021/10/25 15:26:09;;;;;;;18.50;10.40;;;;;;;6.14;73.74;99945.45;1763019;79;21089;-66
2021/10/25 15:28:36;;;;;;;19.73;11.37;;;;;;;6.09;73.78;99947.31;1769965;79;21896;-67
2021/10/25 15:31:03;;;;;;;25.32;13.08;;;;;;;6.00;73.90;99944.05;1740060;80;21015;-67
2021/10/25 15:33:29;;;;;;;22.95;11.68;;;;;;;5.95;73.87;99952.38;1758613;79;21512;-68
2021/10/25 15:35:58;;;;;;;26.73;12.50;;;;;;;5.89;73.87;99939.55;1758755;79;20979;-67
2021/10/25 15:41:27;;;;;;;20.52;11.80;;;;;;;5.79;73.96;99954.91;1677123;81;21103;-66
2021/10/25 15:43:54;;;;;;;18.87;11.12;;;;;;;5.72;74.00;99955.95;1662921;83;21185;-66
2021/10/25 15:46:21;;;;;;;21.23;11.57;;;;;;;5.65;74.07;99946.61;1714882;81;21017;-66
2021/10/25 15:49:08;;;;;;;20.50;10.73;;;;;;;5.59;74.09;99952.78;1706243;81;21036;-66
2021/10/25 15:51:37;;;;;;;22.15;11.15;;;;;;;5.52;74.17;99943.02;1617840;84;21082;-68
2021/10/25 15:54:05;;;;;;;19.57;11.83;;;;;;;5.46;74.24;99944.47;1716312;80;21192;-67
2021/10/25 15:56:32;;;;;;;21.00;11.30;;;;;;;5.42;74.24;99941.52;1708870;81;20979;-68
2021/10/25 15:58:59;;;;;;;22.30;10.90;;;;;;;5.38;74.26;99943.78;1719159;80;21066;-67
2021/10/25 16:01:26;;;;;;;21.85;12.00;;;;;;;5.33;74.34;99940.44;1718323;81;20999;-67
2021/10/25 16:03:54;;;;;;;23.90;12.30;;;;;;;5.30;74.40;99936.17;1714967;81;21038;-68
2021/10/25 16:06:20;;;;;;;19.90;11.05;;;;;;;5.27;74.37;99945.76;1717202;80;21936;-67
2021/10/25 16:08:48;;;;;;;20.23;12.75;;;;;;;5.21;74.38;99938.09;1711253;80;20972;-67
2021/10/25 16:11:14;;;;;;;22.00;12.98;;;;;;;5.16;74.44;99942.10;1720416;81;20971;-67
2021/10/25 16:13:41;;;;;;;22.02;12.50;;;;;;;5.13;74.52;99952.08;1694975;81;22419;-67
2021/10/25 16:16:08;;;;;;;21.60;13.18;;;;;;;5.11;74.63;99940.90;1707243;80;21050;-67
2021/10/25 16:18:36;;;;;;;23.33;12.97;;;;;;;5.11;74.65;99942.19;1702207;81;21098;-67
2021/10/25 16:21:04;;;;;;;23.18;12.98;;;;;;;5.09;74.63;99944.40;1727257;80;21065;-67
2021/10/25 16:23:31;;;;;;;19.45;11.50;;;;;;;5.10;74.84;99940.95;1684244;83;21024;-68
2021/10/25 16:25:58;;;;;;;24.15;13.65;;;;;;;5.11;74.87;99940.90;1716869;81;21556;-68
2021/10/25 16:28:24;;;;;;;22.93;12.80;;;;;;;5.13;74.82;99943.02;1716863;80;20943;-68
2021/10/25 16:30:54;;;;;;;23.43;12.90;;;;;;;5.12;74.88;99943.04;1724123;80;21120;-69
2021/10/25 16:33:21;;;;;;;20.08;12.37;;;;;;;5.11;74.93;99938.31;1722279;81;21042;-69
2021/10/25 16:35:47;;;;;;;20.25;12.47;;;;;;;5.14;75.00;99943.42;1718435;81;20994;-69
2021/10/25 16:38:14;;;;;;;26.42;14.70;;;;;;;5.14;75.01;99939.53;1715653;81;21135;-73
2021/10/25 16:40:41;;;;;;;26.87;13.00;;;;;;;5.13;75.01;99941.72;1728653;80;21045;-71
2021/10/25 16:43:08;;;;;;;26.48;13.25;;;;;;;5.13;75.09;99945.61;1729332;81;21178;-72
2021/10/25 16:45:35;;;;;;;22.40;13.20;;;;;;;5.11;75.07;99937.02;1720576;81;21053;-72
2021/10/25 16:48:02;;;;;;;22.87;14.73;;;;;;;5.12;75.11;99930.94;1715334;81;21036;-72
2021/10/25 16:50:32;;;;;;;32.23;14.90;;;;;;;5.10;75.15;99926.27;1725828;80;27232;-72
2021/10/25 16:53:09;;;;;;;19.10;12.35;;;;;;;5.13;75.28;99927.94;1712722;81;21000;-73
2021/10/25 17:11:13;;;;;;;28.92;18.45;;;;;;;5.25;75.53;99911.28;1719234;81;20923;-72
2021/10/25 17:13:40;;;;;;;24.77;13.72;;;;;;;5.27;75.67;99912.10;1709540;81;21026;-74
2021/10/25 17:16:08;;;;;;;26.12;13.05;;;;;;;5.31;75.62;99908.55;1710214;81;21192;-76
2021/10/25 17:18:36;;;;;;;25.50;12.33;;;;;;;5.31;75.61;99895.15;1718763;80;21006;-75
2021/10/25 17:21:10;;;;;;;20.55;11.63;;;;;;;5.32;75.66;99899.88;1717991;81;26462;-75
2021/10/25 17:23:34;;;;;;;22.42;10.82;;;;;;;5.36;75.74;99902.83;1722680;80;21300;-76
2021/10/25 17:26:00;;;;;;;17.87;11.78;;;;;;;5.37;75.73;99903.22;1720696;80;20911;-75
2021/10/25 17:28:30;;;;;;;20.53;12.00;;;;;;;5.37;75.74;99904.52;1700291;81;21069;-76
2021/10/25 17:30:56;;;;;;;24.47;12.33;;;;;;;5.36;75.72;99896.34;1670523;82;21103;-76
2021/10/25 17:33:25;;;;;;;18.73;12.15;;;;;;;5.33;75.75;99909.37;1698567;82;21091;-76
2021/10/25 17:35:52;;;;;;;21.12;12.05;;;;;;;5.31;75.87;99903.36;1725124;80;21112;-75
2021/10/25 17:38:19;;;;;;;23.70;13.03;;;;;;;5.32;75.95;99905.05;1712767;81;21536;-75
2021/10/25 17:40:48;;;;;;;19.45;12.07;;;;;;;5.32;75.96;99912.82;1717077;80;20986;-76
2021/10/25 17:43:23;;;;;;;19.85;11.65;;;;;;;5.29;75.96;99913.77;1720790;81;20962;-75
2021/10/25 17:45:43;;;;;;;17.95;11.18;;;;;;;5.30;76.06;99912.03;1713072;82;21961;-75
2021/10/25 17:48:11;;;;;;;20.43;11.53;;;;;;;5.32;76.05;99912.82;1716303;81;20990;-76
2021/10/25 17:50:38;;;;;;;20.65;12.55;;;;;;;5.33;76.08;99920.57;1721855;81;20975;-75
2021/10/25 17:53:05;;;;;;;24.25;12.53;;;;;;;5.36;76.22;99917.06;1712104;80;21065;-75
2021/10/25 17:55:32;;;;;;;20.50;11.67;;;;;;;5.37;76.17;99918.75;1719779;82;20975;-76
2021/10/25 17:57:58;;;;;;;21.93;10.23;;;;;;;5.41;76.20;99918.27;1724057;80;21930;-73
2021/10/25 18:00:25;;;;;;;21.43;11.23;;;;;;;5.41;76.14;99904.87;1728920;81;21560;-72
2021/10/25 18:02:57;;;;;;;16.70;11.10;;;;;;;5.44;76.25;99909.97;1723457;81;21371;-73
2021/10/25 18:05:21;;;;;;;19.52;11.85;;;;;;;5.44;76.17;99897.02;1719890;81;21057;-73
2021/10/25 18:07:48;;;;;;;21.07;11.40;;;;;;;5.44;76.16;99898.32;1711414;81;21066;-74
2021/10/25 18:10:16;;;;;;;19.42;10.82;;;;;;;5.44;76.22;99890.55;1724789;80;21251;-72
2021/10/25 18:12:44;;;;;;;20.57;11.12;;;;;;;5.43;76.23;99887.53;1723262;80;20916;-72
2021/10/25 18:15:11;;;;;;;18.57;11.57;;;;;;;5.43;76.28;99884.94;1720959;80;21030;-74
2021/10/25 18:17:40;;;;;;;21.45;12.15;;;;;;;5.42;76.28;99887.59;1720890;81;20998;-72
2021/10/25 18:20:09;;;;;;;20.80;12.50;;;;;;;5.40;76.29;99887.61;1725652;80;21098;-73
2021/10/25 18:22:36;;;;;;;21.70;12.98;;;;;;;5.37;76.25;99898.04;1724093;81;21203;-72
2021/10/25 18:25:04;;;;;;;23.22;12.35;;;;;;;5.33;76.35;99884.32;1721459;81;21069;-72
2021/10/25 18:27:30;;;;;;;19.50;11.83;;;;;;;5.31;76.33;99886.09;1723563;80;21034;-73
2021/10/25 18:29:57;;;;;;;21.07;12.20;;;;;;;5.27;76.34;99873.27;1723095;80;21027;-74
2021/10/25 18:32:23;;;;;;;22.87;12.07;;;;;;;5.27;76.42;99884.92;1723139;81;21121;-73
2021/10/25 18:34:50;;;;;;;18.27;12.35;;;;;;;5.25;76.40;99867.27;1709805;81;21504;-73
2021/10/25 18:37:18;;;;;;;22.13;13.25;;;;;;;5.24;76.47;99872.05;1720065;81;21672;-74
2021/10/25 18:39:45;;;;;;;25.45;13.25;;;;;;;5.23;76.47;99875.50;1712583;81;21078;-74
2021/10/25 18:42:14;;;;;;;22.55;13.62;;;;;;;5.21;76.54;99863.03;1689266;81;21021;-74
2021/10/25 18:44:40;;;;;;;25.27;13.75;;;;;;;5.22;76.51;99860.87;1716214;81;21030;-71
2021/10/25 18:47:09;;;;;;;22.87;13.10;;;;;;;5.18;76.50;99870.87;1721359;81;21449;-72
2021/10/25 18:49:35;;;;;;;20.17;13.68;;;;;;;5.13;76.55;99865.37;1720296;81;21005;-73
2021/10/25 18:52:02;;;;;;;21.02;12.85;;;;;;;5.11;76.58;99872.31;1732752;80;21047;-73
2021/10/25 18:54:31;;;;;;;23.40;13.22;;;;;;;5.10;76.62;99873.20;1711089;81;21557;-73
2021/10/25 18:56:57;;;;;;;21.10;13.22;;;;;;;5.07;76.63;99870.69;1711881;80;21002;-77
2021/10/25 18:59:26;;;;;;;25.37;13.62;;;;;;;5.02;76.62;99873.81;1716319;82;21560;-73
2021/10/25 19:01:53;;;;;;;21.55;12.90;;;;;;;5.00;76.66;99875.58;1727360;81;21564;-72
2021/10/25 19:04:20;;;;;;;23.35;14.07;;;;;;;4.95;76.69;99877.41;1722862;82;21100;-73
2021/10/25 19:06:47;;;;;;;21.70;13.57;;;;;;;4.90;76.69;99871.48;1716667;81;20927;-72
2021/10/25 19:09:14;;;;;;;27.33;15.57;;;;;;;4.86;76.76;99872.44;1722494;80;21239;-72
2021/10/25 19:11:40;;;;;;;30.75;16.48;;;;;;;4.82;76.82;99868.23;1712381;80;22437;-73
2021/10/25 19:14:12;;;;;;;29.33;16.93;;;;;;;4.78;76.79;99856.23;1705595;81;20974;-72
2021/10/25 19:16:41;;;;;;;30.30;18.07;;;;;;;4.75;76.83;99856.30;1722781;81;21104;-72
2021/10/25 19:19:10;;;;;;;26.07;15.95;;;;;;;4.68;76.89;99852.55;1723329;80;21746;-72
2021/10/25 19:21:43;;;;;;;26.23;14.47;;;;;;;4.65;76.92;99851.33;1728259;81;21021;-73
2021/10/25 19:24:11;;;;;;;24.18;14.15;;;;;;;4.62;76.91;99846.22;1726949;81;21119;-73
2021/10/25 19:26:41;;;;;;;22.95;15.80;;;;;;;4.44;77.12;99838.83;1656761;83;23322;-73
2021/10/25 19:29:12;;;;;;;21.10;14.13;;;;;;;4.44;77.12;99838.83;1659564;84;21081;-73
2021/10/25 19:31:40;;;;;;;26.40;15.72;;;;;;;4.49;76.96;99846.91;1661252;84;20973;-71
2021/10/25 19:34:07;;;;;;;27.17;14.63;;;;;;;4.47;76.98;99858.16;1713974;81;21541;-73
2021/10/25 19:36:35;;;;;;;26.93;16.00;;;;;;;4.43;77.06;99861.26;1724178;80;21187;-73
2021/10/25 19:39:03;;;;;;;26.20;14.43;;;;;;;4.41;77.06;99849.23;1717431;80;20979;-73
2021/10/25 19:41:30;;;;;;;22.50;13.48;;;;;;;4.38;77.11;99864.81;1723614;81;22694;-73
2021/10/25 19:43:57;;;;;;;25.32;15.40;;;;;;;4.36;77.25;99864.83;1721867;81;21594;-73
2021/10/25 19:46:23;;;;;;;23.70;14.67;;;;;;;4.37;77.24;99863.09;1709470;81;20951;-73
2021/10/25 19:48:52;;;;;;;21.02;14.63;;;;;;;4.34;77.28;99852.81;1719663;81;21143;-73
2021/10/25 19:51:19;;;;;;;26.20;14.78;;;;;;;4.34;77.30;99850.23;1722766;80;21010;-72
2021/10/25 19:53:55;;;;;;;25.17;15.08;;;;;;;4.33;77.23;99847.24;1701777;81;21031;-72
2021/10/25 19:56:26;;;;;;;25.35;14.50;;;;;;;4.30;77.20;99846.02;1713074;80;20975;-72
2021/10/25 19:58:54;;;;;;;23.77;14.98;;;;;;;4.24;77.22;99846.54;1713603;81;21201;-72
2021/10/25 20:01:22;;;;;;;29.72;14.15;;;;;;;4.20;77.31;99848.79;1726653;81;21969;-73
2021/10/25 20:03:49;;;;;;;22.45;14.00;;;;;;;4.19;77.38;99848.36;1722296;81;21070;-73
2021/10/25 20:06:16;;;;;;;25.85;15.43;;;;;;;4.16;77.39;99849.71;1716542;81;21100;-72
2021/10/25 20:08:43;;;;;;;23.80;15.48;;;;;;;4.13;77.40;99854.94;1713588;80;20963;-73
2021/10/25 20:11:12;;;;;;;26.50;15.40;;;;;;;4.09;77.42;99848.14;1719975;81;21038;-73
2021/10/25 20:13:42;;;;;;;26.52;14.70;;;;;;;4.07;77.46;99844.72;1712388;81;21495;-73
2021/10/25 20:16:13;;;;;;;29.35;15.58;;;;;;;4.04;77.51;99842.20;1712376;80;20957;-73
2021/10/25 20:18:41;;;;;;;24.82;15.32;;;;;;;4.02;77.52;99862.04;1719952;80;22346;-73
2021/10/25 20:21:08;;;;;;;25.95;15.05;;;;;;;3.99;77.56;99847.44;1724828;81;20975;-73
2021/10/25 20:23:37;;;;;;;24.63;15.15;;;;;;;3.96;77.58;99850.09;1714856;81;21022;-73
2021/10/25 20:26:06;;;;;;;26.73;15.68;;;;;;;3.95;77.62;99855.27;1717365;80;21501;-73
2021/10/25 20:28:37;;;;;;;23.27;14.38;;;;;;;3.92;77.63;99849.74;1722893;81;21063;-73
2021/10/25 20:31:06;;;;;;;30.80;15.78;;;;;;;3.89;77.65;99844.60;1719289;80;21002;-73
2021/10/25 20:33:33;;;;;;;26.82;16.02;;;;;;;3.89;77.83;99863.13;1719578;80;21190;-74
2021/10/25 20:36:04;;;;;;;21.62;15.75;;;;;;;3.89;77.82;99860.55;1706126;81;20907;-73
2021/10/25 20:38:35;;;;;;;26.33;15.32;;;;;;;3.87;77.84;99852.00;1721507;82;21101;-73
2021/10/25 20:41:05;;;;;;;26.10;16.27;;;;;;;3.84;77.86;99849.44;1719162;81;20987;-73
2021/10/25 20:43:34;;;;;;;25.65;15.90;;;;;;;3.80;77.91;99853.38;1716270;81;21120;-74
2021/10/25 20:46:00;;;;;;;28.32;16.97;;;;;;;3.78;77.86;99847.81;1719965;81;20993;-73
2021/10/25 20:48:27;;;;;;;27.75;15.50;;;;;;;3.74;77.84;99846.19;1721117;80;20955;-74
2021/10/25 20:50:55;;;;;;;31.80;17.85;;;;;;;3.68;77.93;99843.27;1722895;80;21104;-73
2021/10/25 20:53:23;;;;;;;27.90;16.25;;;;;;;3.66;77.97;99851.47;1713923;81;20986;-73
2021/10/25 20:55:51;;;;;;;27.77;15.95;;;;;;;3.63;78.01;99850.23;1726411;81;21036;-73
2021/10/25 20:58:19;;;;;;;26.65;15.80;;;;;;;3.58;78.00;99836.13;1727316;81;28294;-73
2021/10/25 21:00:46;;;;;;;26.93;16.42;;;;;;;3.56;78.07;99839.61;1717784;80;21399;-73
2021/10/25 21:03:12;;;;;;;32.40;16.40;;;;;;;3.51;78.03;99841.41;1713742;81;21169;-73
2021/10/25 21:05:42;;;;;;;32.10;17.00;;;;;;;3.46;77.99;99840.63;1715624;81;21630;-74
2021/10/25 21:08:13;;;;;;;25.25;16.42;;;;;;;3.46;77.99;99840.63;1719916;81;21800;-73
2021/10/25 21:10:39;;;;;;;28.35;17.17;;;;;;;3.44;78.18;99828.18;1708387;82;21164;-73
2021/10/25 21:13:06;;;;;;;30.10;15.48;;;;;;;3.41;78.25;99832.11;1719684;81;21058;-73
2021/10/25 21:15:32;;;;;;;22.27;15.85;;;;;;;3.39;78.28;99831.27;1722098;81;21150;-74
2021/10/25 21:18:04;;;;;;;26.80;16.50;;;;;;;3.36;78.45;99827.88;1700964;82;20971;-74
2021/10/25 21:20:31;;;;;;;27.22;16.40;;;;;;;3.36;78.44;99834.34;1728435;81;21773;-73
2021/10/25 21:22:58;;;;;;;26.07;15.58;;;;;;;3.35;78.46;99823.58;1719407;81;21010;-73
2021/10/25 21:25:24;;;;;;;28.87;17.10;;;;;;;3.34;78.52;99815.88;1720950;80;21531;-73
2021/10/25 21:27:51;;;;;;;26.85;15.23;;;;;;;3.35;78.53;99823.58;1711854;81;21601;-73
2021/10/25 21:30:18;;;;;;;24.67;15.25;;;;;;;3.34;78.56;99820.59;1720826;81;21002;-73
2021/10/25 21:32:44;;;;;;;26.77;16.57;;;;;;;3.33;78.63;99816.73;1720496;82;21556;-74
2021/10/25 21:35:11;;;;;;;28.93;17.07;;;;;;;3.32;78.61;99821.05;1725527;80;21117;-73
2021/10/25 21:37:38;;;;;;;32.23;17.42;;;;;;;3.30;78.56;99824.09;1717190;80;20973;-71
2021/10/25 21:40:07;;;;;;;26.95;16.85;;;;;;;3.29;78.61;99821.10;1710157;81;21557;-71
2021/10/25 21:42:33;;;;;;;24.85;15.35;;;;;;;3.28;78.64;99814.69;1714063;80;21023;-71
2021/10/25 21:45:00;;;;;;;29.63;16.23;;;;;;;3.27;78.68;99815.11;1714316;81;21495;-71
2021/10/25 21:47:26;;;;;;;24.43;15.90;;;;;;;3.25;78.70;99814.71;1714609;81;21035;-71
2021/10/25 21:49:53;;;;;;;26.95;15.58;;;;;;;3.23;78.72;99809.59;1720396;82;21010;-71
2021/10/25 21:52:20;;;;;;;27.22;15.98;;;;;;;3.23;78.88;99803.59;1721282;81;22138;-71
2021/10/25 21:54:46;;;;;;;22.35;15.00;;;;;;;3.23;78.93;99786.38;1714491;81;21580;-71
2021/10/25 21:57:13;;;;;;;25.27;14.93;;;;;;;3.25;78.96;99797.53;1715275;81;21557;-71
2021/10/25 21:59:40;;;;;;;21.17;13.93;;;;;;;3.27;79.02;99802.20;1692509;81;21258;-71
2021/10/25 22:02:07;;;;;;;27.95;15.53;;;;;;;3.29;79.07;99797.88;1713669;82;21572;-70
2021/10/25 22:04:52;;;;;;;25.43;13.72;;;;;;;3.34;79.16;99792.20;1724186;81;21069;-73
2021/10/25 22:07:37;;;;;;;25.82;14.33;;;;;;;3.38;79.15;99790.86;1688980;81;21054;-73
2021/10/25 22:10:07;;;;;;;23.80;14.27;;;;;;;3.42;79.18;99789.92;1707630;81;21033;-73
2021/10/25 22:12:35;;;;;;;23.32;13.98;;;;;;;3.44;79.22;99785.59;1726291;80;20994;-73
2021/10/25 22:15:07;;;;;;;24.07;14.15;;;;;;;3.47;79.26;99793.28;1724606;80;21026;-71
2021/10/25 22:17:34;;;;;;;25.70;12.63;;;;;;;3.50;79.33;99784.19;1713878;80;21155;-72
2021/10/25 22:20:01;;;;;;;23.87;13.43;;;;;;;3.55;79.45;99779.80;1713379;82;20928;-72
2021/10/25 22:22:27;;;;;;;23.17;12.97;;;;;;;3.60;79.36;99774.12;1726386;80;21121;-72
2021/10/25 22:24:54;;;;;;;20.08;12.95;;;;;;;3.62;79.45;99781.41;1720089;82;21505;-73
2021/10/25 22:27:21;;;;;;;25.92;12.18;;;;;;;3.66;79.38;99786.07;1724611;81;20994;-72
2021/10/25 22:29:47;;;;;;;22.65;12.88;;;;;;;3.67;79.37;99785.17;1719614;82;21082;-73
2021/10/25 22:32:15;;;;;;;21.42;12.30;;;;;;;3.68;79.37;99784.32;1699403;82;20994;-72
2021/10/25 22:34:42;;;;;;;18.02;12.07;;;;;;;3.70;79.39;99788.58;1718310;82;20979;-72
2021/10/25 22:37:09;;;;;;;25.37;13.55;;;;;;;3.70;79.43;99784.70;1730599;81;20916;-72
2021/10/25 22:39:36;;;;;;;18.52;12.10;;;;;;;3.68;79.35;99783.88;1729622;82;21586;-72
2021/10/25 22:42:03;;;;;;;19.67;12.18;;;;;;;3.68;79.36;99778.70;1735278;80;21101;-72
2021/10/25 22:44:30;;;;;;;20.15;13.03;;;;;;;3.66;79.37;99771.42;1720471;81;21172;-72
2021/10/25 22:46:57;;;;;;;21.80;12.85;;;;;;;3.67;79.45;99774.44;1719544;81;21118;-72
2021/10/25 22:49:26;;;;;;;19.65;13.10;;;;;;;3.67;79.51;99773.14;1719895;80;26055;-72
2021/10/25 22:51:52;;;;;;;24.07;14.18;;;;;;;3.69;79.52;99772.66;1717215;81;21106;-73
2021/10/25 22:54:19;;;;;;;24.37;13.25;;;;;;;3.68;79.48;99775.28;1715146;80;21149;-73
2021/10/25 22:56:46;;;;;;;25.17;12.93;;;;;;;3.67;79.54;99766.69;1709609;82;22318;-72
2021/10/25 22:59:12;;;;;;;19.52;12.18;;;;;;;3.67;79.53;99767.98;1712676;81;20995;-72
2021/10/25 23:01:39;;;;;;;29.92;13.32;;;;;;;3.65;79.53;99761.98;1713383;80;21175;-72
2021/10/25 23:04:06;;;;;;;20.55;13.32;;;;;;;3.64;79.50;99765.45;1730228;81;21573;-72
2021/10/25 23:06:33;;;;;;;23.40;12.60;;;;;;;3.64;79.55;99762.88;1731374;80;21114;-72
2021/10/25 23:08:59;;;;;;;20.60;12.40;;;;;;;3.63;79.87;99763.73;1709117;81;21005;-72
2021/10/25 23:11:26;;;;;;;20.30;13.03;;;;;;;3.63;79.87;99763.73;1717222;81;21634;-72
2021/10/25 23:13:53;;;;;;;20.57;12.75;;;;;;;3.62;79.60;99762.05;1713529;81;21048;-73
2021/10/25 23:16:20;;;;;;;20.15;12.07;;;;;;;3.60;79.62;99766.38;1708783;81;21074;-72
2021/10/25 23:18:47;;;;;;;;;;;;;;;3.56;79.58;99762.16;1715616;81;21103;-72
2021/10/25 23:21:16;;;;;;;18.40;12.13;;;;;;;3.56;79.71;99769.91;1690516;82;21274;-72
2021/10/25 23:23:44;;;;;;;21.62;12.18;;;;;;;3.51;79.66;99773.00;1729960;80;21037;-72
2021/10/25 23:26:10;;;;;;;24.40;13.18;;;;;;;3.46;79.70;99769.20;1744581;80;21025;-72
2021/10/25 23:30:41;;;;;;;18.55;12.13;;;;;;;3.47;79.79;99768.31;1803800;75;22686;-72
2021/10/25 23:33:08;;;;;;;21.97;12.63;;;;;;;3.39;79.76;99770.62;1823474;77;22285;-72
2021/10/25 23:35:35;;;;;;;20.62;12.15;;;;;;;3.35;79.81;99764.22;1760310;80;21076;-72
2021/10/25 23:38:01;;;;;;;20.62;12.98;;;;;;;3.34;79.89;99769.42;1759832;79;20926;-72
2021/10/25 23:40:28;;;;;;;18.00;12.50;;;;;;;3.33;79.94;99768.99;1753599;79;21048;-72
2021/10/25 23:42:55;;;;;;;17.75;12.33;;;;;;;3.31;79.93;99760.45;1764588;79;21004;-72
2021/10/25 23:45:21;;;;;;;19.55;12.60;;;;;;;3.29;79.91;99759.17;1760329;80;20939;-72
2021/10/25 23:47:48;;;;;;;21.50;12.70;;;;;;;3.26;79.89;99759.22;1767028;80;21846;-72
2021/10/25 23:50:15;;;;;;;18.87;13.25;;;;;;;3.24;79.92;99767.42;1760175;80;21017;-72
2021/10/25 23:52:41;;;;;;;22.77;13.00;;;;;;;3.19;79.91;99765.34;1783977;80;20958;-72
2021/10/25 23:55:10;;;;;;;23.37;13.60;;;;;;;3.15;79.92;99771.45;1754315;80;21065;-72
2021/10/25 23:57:37;;;;;;;24.90;13.83;;;;;;;3.13;79.95;99768.03;1764844;79;21038;-72
